Pagina principale
METAR-TAF:

METAR-TAF

Aeroporti :

Aeroporto di Pointe Noire

Pointe-Noire, Congo

latitudine: 04-49S, longitudine: 011-54E, altezza: 17 m

Osservazione

Il bollettino è stato emesso 1 ora e 41 minuti fa, alle 16:00 UTC
Vento 6 kt da sud/sud-ovest
Temperature 23°C
Umidità 83%
Pressione 1013 hPa
Visibilità: 8000 m
Poco nuvoloso ad un'altezza di 1300 ft
Nuvoloso ad un'altezza di 2300 ft

METAR: FCPP 141600Z 21006KT 8000 FEW013 BKN023 23/20 Q1013 NOSIG

Ora: 18:41 (17:41 UTC)

Previsione

Il bollettino è stato emesso 41 minuti fa, alle 17:00 UTC
Previsione valida dal 14 alle 18 UTC al 15 alle 18 UTC
Vento 5 kt da sud
Visibilità: 8000 m
Nubi sparse ad un'altezza di 1000 ft
Nuvoloso ad un'altezza di 2300 ft
Probabilità 30%
dal 15 alle 04 UTC al 15 alle 08 UTC
Visibilità: 4000 m
foschia

TAF: FCPP 141700Z 1418/1518 19005KT 8000 SCT010 BKN023 PROB30 1504/1508 4000 BR

Osservazioni e previsioni meteorologiche di più di 4000 aeroporti (messaggi METAR e TAF).

Le stazioni disponibili sono rappresentate dai dischi gialli e rossi sulla carta.

Puntare il mouse per vedere il nome della stazione.

Clicca sopra per visualizzare le osservazioni e previsioni meteorologiche.

Per cambiare la mappa : fare clic sui pulsanti verdi con una croce nera per ingrandire, il pulsante verde con un trattino per diminuire, o sulla freccia verde per le mappe adiacenti.


METAR-TAF: